Time;durP1;ratioP1;P1;durP2;ratioP2;P2;SDS_P1;SDS_P2;PMS_P1;PMS_P2;Temp;Humidity;BMP_temperature;BMP_pressure;BME280_temperature;BME280_humidity;BME280_pressure;Samples;Min_cycle;Max_cycle;Signal;HPM_P1;HPM_P2
2023/10/19 00:02:05;;;;;;;17.53;14.87;;;;;;;9.65;100.00;98396.56;5000947;28;20242;-79
2023/10/19 00:04:32;;;;;;;16.43;14.73;;;;;;;9.74;100.00;98392.47;5008746;28;20589;-80
2023/10/19 00:06:57;;;;;;;15.17;13.57;;;;;;;9.66;100.00;98387.94;4990203;28;20210;-80
2023/10/19 00:09:23;;;;;;;15.00;13.53;;;;;;;9.64;100.00;98383.84;4992627;28;20655;-80
2023/10/19 00:11:51;;;;;;;17.37;14.10;;;;;;;9.61;100.00;98376.38;4985561;28;20226;-80
2023/10/19 00:14:20;;;;;;;16.47;14.77;;;;;;;9.64;100.00;98373.59;4992536;28;20175;-81
2023/10/19 00:17:00;;;;;;;15.40;13.87;;;;;;;9.57;100.00;98368.09;4991266;28;20183;-81
2023/10/19 00:19:28;;;;;;;16.53;14.83;;;;;;;9.52;100.00;98360.75;4992283;28;20265;-81
2023/10/19 00:22:01;;;;;;;18.67;15.87;;;;;;;9.64;100.00;98361.56;4986770;28;20316;-82
2023/10/19 00:24:27;;;;;;;17.13;14.80;;;;;;;9.72;100.00;98360.94;4992200;28;20176;-82
2023/10/19 00:26:54;;;;;;;17.83;14.43;;;;;;;9.70;100.00;98355.13;4993920;28;20253;-82
2023/10/19 00:29:40;;;;;;;17.87;16.07;;;;;;;9.65;100.00;98358.06;4993444;28;20187;-82
2023/10/19 00:32:06;;;;;;;18.27;16.00;;;;;;;9.77;100.00;98360.59;4997817;28;20670;-82
2023/10/19 00:34:31;;;;;;;17.67;15.83;;;;;;;9.85;100.00;98356.47;4993880;28;20294;-81
2023/10/19 00:36:59;;;;;;;18.13;16.03;;;;;;;9.85;100.00;98361.63;4992135;28;20215;-81
2023/10/19 00:39:24;;;;;;;20.63;16.10;;;;;;;9.84;100.00;98357.41;4992213;28;20190;-80
2023/10/19 00:41:55;;;;;;;18.83;16.43;;;;;;;9.94;100.00;98356.69;4969987;28;20724;-81
2023/10/19 00:44:36;;;;;;;20.50;17.03;;;;;;;9.95;100.00;98354.00;4993685;28;20171;-81
2023/10/19 00:47:11;;;;;;;20.03;16.23;;;;;;;9.94;100.00;98354.13;4993645;28;20178;-80
2023/10/19 00:49:38;;;;;;;23.03;17.53;;;;;;;9.92;100.00;98346.53;4993866;28;20191;-81
2023/10/19 00:52:12;;;;;;;24.63;18.60;;;;;;;9.84;100.00;98343.78;4984759;28;20233;-78
2023/10/19 00:54:51;;;;;;;21.03;17.87;;;;;;;9.95;100.00;98342.91;4991466;28;20183;-78
2023/10/19 00:57:20;;;;;;;20.73;18.53;;;;;;;9.99;100.00;98352.81;4982564;28;20179;-78
2023/10/19 01:05:05;;;;;;;26.17;19.67;;;;;;;9.98;100.00;98329.81;4993136;28;20186;-76
2023/10/19 01:07:44;;;;;;;23.33;19.03;;;;;;;9.95;100.00;98340.34;4993243;28;20187;-76
2023/10/19 01:10:20;;;;;;;24.70;19.30;;;;;;;9.94;100.00;98336.16;4971129;28;20203;-76
2023/10/19 01:12:46;;;;;;;21.63;18.23;;;;;;;10.01;100.00;98329.59;5005056;28;20241;-77
2023/10/19 01:17:43;;;;;;;21.97;19.67;;;;;;;10.06;100.00;98316.34;4992872;28;20526;-77
2023/10/19 01:20:22;;;;;;;28.40;20.43;;;;;;;9.88;100.00;98329.72;4983250;28;20211;-77
2023/10/19 01:23:06;;;;;;;28.23;20.47;;;;;;;9.91;100.00;98314.09;4998785;28;20175;-77
2023/10/19 01:25:37;;;;;;;26.70;20.67;;;;;;;9.98;100.00;98306.69;4991304;28;20187;-77
2023/10/19 01:28:08;;;;;;;24.63;20.43;;;;;;;10.05;100.00;98315.53;4992669;28;20643;-77
2023/10/19 01:30:33;;;;;;;28.90;20.70;;;;;;;10.10;100.00;98294.63;4983999;28;20239;-77
2023/10/19 01:32:59;;;;;;;25.17;21.20;;;;;;;10.13;100.00;98307.22;5003331;28;20202;-77
2023/10/19 01:35:24;;;;;;;24.27;20.77;;;;;;;10.01;100.00;98297.00;4992432;28;20278;-77
2023/10/19 01:37:49;;;;;;;31.77;20.90;;;;;;;10.15;100.00;98311.28;4992539;28;20194;-79
2023/10/19 01:40:20;;;;;;;27.43;21.07;;;;;;;10.08;100.00;98299.06;4982443;28;20179;-79
2023/10/19 01:42:46;;;;;;;27.90;22.40;;;;;;;10.15;100.00;98306.13;5004844;28;20190;-79
2023/10/19 01:45:11;;;;;;;24.27;19.67;;;;;;;10.10;100.00;98299.75;4991199;28;20191;-80
2023/10/19 01:47:40;;;;;;;30.23;21.73;;;;;;;10.01;100.00;98296.19;4992335;28;20191;-79
2023/10/19 01:50:06;;;;;;;23.30;20.07;;;;;;;10.03;100.00;98289.16;4982829;28;20209;-80
2023/10/19 01:52:31;;;;;;;24.00;21.00;;;;;;;10.10;100.00;98290.28;4989895;28;20172;-79
2023/10/19 01:54:59;;;;;;;30.33;21.33;;;;;;;10.18;100.00;98292.22;4992599;28;20187;-79
2023/10/19 01:57:26;;;;;;;29.10;22.33;;;;;;;10.10;100.00;98290.28;4991068;28;20187;-80
2023/10/19 01:59:51;;;;;;;31.03;21.63;;;;;;;10.16;100.00;98289.78;4992342;28;20175;-80
2023/10/19 02:02:16;;;;;;;31.40;23.00;;;;;;;10.10;100.00;98289.50;4996279;28;20305;-79
2023/10/19 02:04:42;;;;;;;33.77;22.63;;;;;;;10.22;100.00;98288.47;4991485;28;20197;-82
2023/10/19 02:07:13;;;;;;;31.97;23.17;;;;;;;10.07;100.00;98285.41;4990291;28;20198;-81
2023/10/19 02:09:39;;;;;;;27.37;21.33;;;;;;;10.19;100.00;98281.00;4992402;28;20211;-81
2023/10/19 02:12:06;;;;;;;29.23;22.20;;;;;;;10.31;100.00;98279.19;4982953;28;20230;-80
2023/10/19 02:14:33;;;;;;;31.67;22.13;;;;;;;10.25;100.00;98279.72;4992714;28;20241;-79
2023/10/19 02:17:01;;;;;;;36.87;23.20;;;;;;;10.33;100.00;98285.00;4990993;28;20249;-80
2023/10/19 02:19:28;;;;;;;31.53;22.77;;;;;;;10.33;100.00;98280.69;5005112;28;20187;-79
2023/10/19 02:21:56;;;;;;;30.80;23.57;;;;;;;10.35;100.00;98267.72;4998950;28;20306;-79
2023/10/19 02:24:22;;;;;;;33.73;23.90;;;;;;;10.17;100.00;98259.75;4992628;28;20210;-80
2023/10/19 02:26:54;;;;;;;29.30;22.97;;;;;;;10.27;100.00;98263.22;4990730;28;20191;-79
2023/10/19 02:29:19;;;;;;;30.70;22.67;;;;;;;10.27;100.00;98254.69;4990626;28;20252;-78
2023/10/19 02:31:45;;;;;;;34.50;23.73;;;;;;;10.39;100.00;98248.56;4982476;28;20686;-79
2023/10/19 02:34:14;;;;;;;37.90;24.70;;;;;;;10.52;100.00;98244.94;4992836;28;20175;-79
2023/10/19 02:36:41;;;;;;;32.80;22.87;;;;;;;10.55;100.00;98255.78;4991736;28;20654;-79
2023/10/19 02:39:08;;;;;;;36.83;24.30;;;;;;;10.56;100.00;98247.16;4991748;28;20658;-79
2023/10/19 02:41:43;;;;;;;34.23;24.73;;;;;;;10.49;100.00;98246.84;4993212;28;20233;-78
2023/10/19 02:44:22;;;;;;;33.67;24.17;;;;;;;10.59;100.00;98248.63;4978144;28;20643;-77
2023/10/19 02:46:52;;;;;;;33.43;24.23;;;;;;;10.62;100.00;98249.19;4991258;28;20222;-78
2023/10/19 02:49:20;;;;;;;36.90;24.57;;;;;;;10.72;100.00;98251.00;4991958;28;20254;-78
2023/10/19 02:51:46;;;;;;;35.33;24.77;;;;;;;10.71;100.00;98247.59;4994088;28;20309;-77
2023/10/19 02:54:19;;;;;;;34.37;24.77;;;;;;;10.74;100.00;98247.38;4993788;28;20209;-77
2023/10/19 02:56:53;;;;;;;32.40;23.20;;;;;;;10.78;100.00;98251.28;4990014;28;20257;-78
2023/10/19 02:59:22;;;;;;;31.73;22.47;;;;;;;10.64;100.00;98242.19;4990287;28;20175;-77
2023/10/19 03:02:06;;;;;;;28.43;22.73;;;;;;;10.58;100.00;98242.69;4994043;28;20246;-77
2023/10/19 03:04:35;;;;;;;29.37;21.87;;;;;;;10.41;100.00;98233.81;4990009;28;20282;-77
2023/10/19 03:07:00;;;;;;;29.20;20.93;;;;;;;10.53;100.00;98236.31;4991963;28;20179;-77
2023/10/19 03:11:53;;;;;;;40.37;23.03;;;;;;;10.68;100.00;98232.44;4994808;28;20761;-77
2023/10/19 03:14:19;;;;;;;34.60;22.50;;;;;;;10.47;100.00;98235.06;4990328;28;20269;-78
2023/10/19 03:16:45;;;;;;;32.70;23.17;;;;;;;10.38;100.00;98231.53;4990739;28;20215;-78
2023/10/19 03:19:12;;;;;;;31.30;22.70;;;;;;;10.47;100.00;98232.50;4993434;28;20214;-78
2023/10/19 03:21:42;;;;;;;35.47;24.30;;;;;;;10.52;100.00;98237.25;4996591;28;20262;-77
2023/10/19 03:24:12;;;;;;;31.50;22.93;;;;;;;10.57;100.00;98233.34;4984100;28;20188;-77
2023/10/19 03:26:43;;;;;;;33.97;23.97;;;;;;;10.52;100.00;98224.38;4992075;28;20539;-76
2023/10/19 03:29:12;;;;;;;30.53;22.37;;;;;;;10.58;100.00;98232.41;4994896;28;20199;-76
2023/10/19 03:31:45;;;;;;;45.20;25.63;;;;;;;10.61;100.00;98228.78;4971442;28;20633;-76
2023/10/19 03:34:12;;;;;;;37.47;23.93;;;;;;;10.62;100.00;98233.78;4990870;28;20176;-76
2023/10/19 03:36:38;;;;;;;38.03;23.73;;;;;;;10.62;100.00;98235.53;4994489;28;20234;-76
2023/10/19 03:39:13;;;;;;;34.07;23.93;;;;;;;10.64;100.00;98228.50;4994696;28;20270;-76
2023/10/19 03:41:42;;;;;;;31.20;22.83;;;;;;;10.59;100.00;98231.47;4973190;28;20234;-78
2023/10/19 03:44:24;;;;;;;33.90;23.50;;;;;;;10.53;100.00;98216.56;4978389;28;20175;-79
2023/10/19 03:46:53;;;;;;;33.90;22.63;;;;;;;10.45;100.00;98208.69;4994875;28;20191;-79
2023/10/19 03:49:20;;;;;;;41.13;24.13;;;;;;;10.49;100.00;98210.88;4992989;28;20261;-79
2023/10/19 03:51:58;;;;;;;33.23;22.73;;;;;;;10.59;100.00;98203.19;4985639;28;20269;-79
2023/10/19 03:54:25;;;;;;;36.33;24.90;;;;;;;10.57;100.00;98186.28;4993275;28;20180;-79
2023/10/19 03:56:52;;;;;;;37.93;25.27;;;;;;;10.49;100.00;98174.06;4992801;28;20271;-79
2023/10/19 03:59:17;;;;;;;34.70;24.67;;;;;;;10.48;100.00;98175.81;4994416;28;20286;-80
2023/10/19 04:01:43;;;;;;;48.53;29.17;;;;;;;10.35;100.00;98154.63;4985121;28;20318;-80
2023/10/19 04:04:09;;;;;;;45.33;27.83;;;;;;;10.37;100.00;98155.34;4993178;28;20171;-81
2023/10/19 04:06:35;;;;;;;41.47;26.93;;;;;;;10.53;100.00;98177.19;4993970;28;20534;-80
2023/10/19 04:09:00;;;;;;;42.63;29.43;;;;;;;10.62;100.00;98164.34;4992883;28;20191;-80
2023/10/19 04:11:32;;;;;;;48.13;29.97;;;;;;;10.53;100.00;98174.59;4985268;28;20749;-80
2023/10/19 04:13:59;;;;;;;43.27;28.60;;;;;;;10.57;100.00;98166.50;4992850;28;20184;-80
2023/10/19 04:16:24;;;;;;;43.60;28.57;;;;;;;10.56;100.00;98175.16;4993715;28;20187;-79
2023/10/19 04:18:49;;;;;;;49.73;27.43;;;;;;;10.66;100.00;98167.47;4992821;28;20179;-82
2023/10/19 04:21:15;;;;;;;66.40;27.50;;;;;;;10.77;100.00;98167.34;4985335;28;20624;-82
2023/10/19 04:23:40;;;;;;;41.60;28.03;;;;;;;10.87;100.00;98162.25;4992160;28;20183;-82
2023/10/19 04:26:18;;;;;;;45.73;28.37;;;;;;;10.79;100.00;98162.91;4994054;28;20527;-81
2023/10/19 04:28:50;;;;;;;48.40;29.37;;;;;;;10.76;100.00;98172.66;4991120;28;20206;-82
2023/10/19 04:31:17;;;;;;;39.83;26.53;;;;;;;10.69;100.00;98180.06;4981384;28;20301;-81
2023/10/19 04:33:45;;;;;;;46.03;28.93;;;;;;;10.80;100.00;98156.00;4991897;28;20241;-80
2023/10/19 04:36:14;;;;;;;43.07;29.80;;;;;;;10.67;100.00;98156.25;4992718;28;20185;-82
2023/10/19 04:38:40;;;;;;;43.30;30.10;;;;;;;10.69;100.00;98159.47;4991840;28;20180;-82
2023/10/19 04:41:10;;;;;;;43.87;30.70;;;;;;;10.57;100.00;98174.22;4983312;28;20603;-81
2023/10/19 04:43:39;;;;;;;41.00;28.30;;;;;;;10.52;100.00;98175.53;4984852;28;20270;-81
2023/10/19 04:46:10;;;;;;;45.67;30.07;;;;;;;10.61;100.00;98167.06;4993596;28;20191;-82
2023/10/19 04:48:35;;;;;;;39.73;29.13;;;;;;;10.68;100.00;98164.75;4992049;28;20230;-81
2023/10/19 04:51:01;;;;;;;38.23;29.17;;;;;;;10.72;100.00;98169.53;4990767;28;20235;-82
2023/10/19 04:53:26;;;;;;;37.23;28.57;;;;;;;10.79;100.00;98154.34;4984097;28;20172;-81
2023/10/19 04:55:52;;;;;;;41.30;29.53;;;;;;;10.88;100.00;98155.31;4991865;28;20191;-80
2023/10/19 04:58:17;;;;;;;44.60;29.60;;;;;;;10.80;100.00;98158.56;4991806;28;20701;-81
2023/10/19 05:00:43;;;;;;;42.53;28.97;;;;;;;10.55;100.00;98168.38;4987905;28;20317;-82
2023/10/19 05:03:08;;;;;;;41.33;29.90;;;;;;;10.52;100.00;98167.84;4990806;28;20250;-81
2023/10/19 05:05:35;;;;;;;34.67;27.67;;;;;;;10.60;100.00;98171.38;4992533;28;20210;-80
2023/10/19 05:08:01;;;;;;;40.40;29.03;;;;;;;10.70;100.00;98168.84;4992486;28;20198;-80
2023/10/19 05:10:26;;;;;;;42.23;30.00;;;;;;;10.81;100.00;98167.91;4984284;28;20240;-81
2023/10/19 05:12:54;;;;;;;44.03;30.93;;;;;;;10.93;100.00;98169.41;5000636;28;20186;-80
2023/10/19 05:15:20;;;;;;;45.00;28.83;;;;;;;11.00;100.00;98166.31;4991419;28;20187;-80
2023/10/19 05:17:45;;;;;;;41.47;28.40;;;;;;;11.07;100.00;98163.06;4989326;28;20283;-80
2023/10/19 05:20:11;;;;;;;41.07;29.83;;;;;;;11.12;100.00;98154.94;4983380;28;20207;-79
2023/10/19 05:22:37;;;;;;;43.70;32.23;;;;;;;11.04;100.00;98154.81;4990494;28;20188;-82
2023/10/19 05:25:03;;;;;;;43.20;30.23;;;;;;;11.09;100.00;98165.53;4992800;28;20222;-80
2023/10/19 05:27:28;;;;;;;46.57;31.53;;;;;;;10.98;100.00;98163.88;4992728;28;20186;-80
2023/10/19 05:29:54;;;;;;;54.43;30.53;;;;;;;11.08;100.00;98169.03;4991314;28;20558;-79
2023/10/19 05:32:19;;;;;;;45.13;29.70;;;;;;;11.02;100.00;98160.09;4981596;28;20222;-79
2023/10/19 05:34:44;;;;;;;41.20;29.03;;;;;;;11.03;100.00;98155.78;4991806;28;20191;-80
2023/10/19 05:37:10;;;;;;;58.70;32.60;;;;;;;11.00;100.00;98156.03;4990904;28;20262;-80
2023/10/19 05:39:36;;;;;;;57.33;33.67;;;;;;;11.06;100.00;98160.63;4989045;28;20601;-79
2023/10/19 05:42:01;;;;;;;54.17;33.80;;;;;;;11.11;100.00;98159.28;4983019;28;20214;-78
2023/10/19 05:44:30;;;;;;;53.20;32.53;;;;;;;11.19;100.00;98152.63;4991720;28;20207;-79
2023/10/19 05:46:55;;;;;;;54.37;35.90;;;;;;;11.10;100.00;98152.53;4991714;28;20233;-79
2023/10/19 05:49:20;;;;;;;68.07;34.10;;;;;;;11.14;100.00;98153.88;4991786;28;20682;-79
2023/10/19 05:51:45;;;;;;;68.27;33.90;;;;;;;10.99;100.00;98147.50;4982737;28;20218;-79
2023/10/19 05:54:12;;;;;;;87.53;37.27;;;;;;;11.15;100.00;98152.13;4990749;28;20191;-78
2023/10/19 05:56:37;;;;;;;69.27;36.87;;;;;;;11.17;100.00;98160.50;4991733;28;20620;-79
2023/10/19 05:59:04;;;;;;;74.83;36.17;;;;;;;11.25;100.00;98163.22;4992394;28;20199;-79
2023/10/19 06:01:29;;;;;;;108.83;36.50;;;;;;;11.22;100.00;98158.31;4992230;28;20604;-79
2023/10/19 06:03:56;;;;;;;81.40;36.70;;;;;;;11.27;100.00;98152.78;4986011;28;20183;-79
2023/10/19 06:06:22;;;;;;;167.73;39.20;;;;;;;11.28;100.00;98151.84;4990552;28;20230;-79
2023/10/19 06:08:47;;;;;;;149.17;40.00;;;;;;;11.32;100.00;98149.81;4990446;28;20203;-79
2023/10/19 06:11:13;;;;;;;183.07;42.63;;;;;;;11.36;100.00;98143.44;4990983;28;20230;-79
2023/10/19 06:13:38;;;;;;;254.30;44.23;;;;;;;11.32;100.00;98148.03;4998319;28;20249;-80
2023/10/19 06:16:04;;;;;;;128.67;38.57;;;;;;;11.38;100.00;98146.69;4990712;28;20184;-80
2023/10/19 06:18:29;;;;;;;215.30;41.30;;;;;;;11.40;100.00;98152.50;4992277;28;20642;-80
2023/10/19 06:20:55;;;;;;;231.53;42.40;;;;;;;11.36;100.00;98154.56;4980297;28;20306;-80
2023/10/19 06:23:20;;;;;;;144.60;37.40;;;;;;;11.32;100.00;98160.09;4980969;28;20611;-80
2023/10/19 06:25:46;;;;;;;259.37;45.40;;;;;;;11.37;100.00;98151.00;4992072;28;20180;-79
2023/10/19 06:28:12;;;;;;;280.33;44.07;;;;;;;11.43;100.00;98152.22;4992172;28;20564;-79
2023/10/19 06:30:37;;;;;;;138.00;38.50;;;;;;;11.46;100.00;98159.66;4983302;28;20226;-79
2023/10/19 06:33:03;;;;;;;161.33;39.83;;;;;;;11.45;100.00;98152.91;5002263;28;20183;-79
2023/10/19 06:35:32;;;;;;;211.87;42.40;;;;;;;11.50;100.00;98162.78;4991727;28;20278;-79
2023/10/19 06:37:59;;;;;;;162.50;41.33;;;;;;;11.53;100.00;98153.03;4990445;28;20186;-80
2023/10/19 06:40:26;;;;;;;220.10;44.50;;;;;;;11.57;100.00;98159.53;4981725;28;20255;-79
2023/10/19 06:42:52;;;;;;;230.33;43.07;;;;;;;11.64;100.00;98167.53;4977854;28;20628;-79
2023/10/19 06:45:18;;;;;;;409.77;51.77;;;;;;;11.67;100.00;98161.28;4992045;28;20175;-79
2023/10/19 06:47:46;;;;;;;212.00;42.77;;;;;;;11.67;100.00;98161.28;4991970;28;20230;-79
2023/10/19 06:50:15;;;;;;;361.30;47.57;;;;;;;11.66;100.00;98155.31;4981377;28;20195;-79
2023/10/19 06:52:42;;;;;;;213.07;43.57;;;;;;;11.78;100.00;98161.13;5006671;28;20551;-79
2023/10/19 06:55:16;;;;;;;143.00;40.87;;;;;;;11.86;100.00;98166.41;4994032;28;20203;-80
2023/10/19 06:57:43;;;;;;;138.60;41.97;;;;;;;11.92;100.00;98170.16;4991718;28;20477;-82
2023/10/19 07:00:14;;;;;;;281.60;46.77;;;;;;;11.87;100.00;98157.72;4982280;28;20548;-80
2023/10/19 07:02:43;;;;;;;89.00;37.13;;;;;;;12.03;100.00;98156.34;4991129;28;20322;-80
2023/10/19 07:05:13;;;;;;;53.53;34.13;;;;;;;12.07;100.00;98162.84;4984301;28;20179;-80
2023/10/19 07:07:41;;;;;;;72.53;36.07;;;;;;;12.14;100.00;98163.09;4994102;28;20241;-80
2023/10/19 07:10:11;;;;;;;56.70;34.67;;;;;;;12.06;100.00;98161.22;4984701;28;20290;-79
2023/10/19 07:12:37;;;;;;;61.80;34.63;;;;;;;12.08;100.00;98154.16;4984487;28;20227;-80
2023/10/19 07:15:06;;;;;;;84.73;35.90;;;;;;;12.13;100.00;98158.88;4996542;28;20600;-80
2023/10/19 07:17:31;;;;;;;109.50;36.63;;;;;;;12.17;100.00;98149.91;4995755;28;20192;-78
2023/10/19 07:19:57;;;;;;;51.27;34.07;;;;;;;12.24;100.00;98149.22;4994412;28;20245;-78
2023/10/19 07:22:22;;;;;;;45.17;32.80;;;;;;;12.04;100.00;98147.66;4981573;28;20234;-80
2023/10/19 07:24:48;;;;;;;52.53;32.30;;;;;;;12.03;100.00;98140.88;4991925;28;20187;-77
2023/10/19 07:27:18;;;;;;;51.97;32.70;;;;;;;12.09;100.00;98148.88;4993771;28;20176;-79
2023/10/19 07:29:44;;;;;;;66.13;33.83;;;;;;;12.13;100.00;98151.16;4983647;28;20342;-67
2023/10/19 07:32:13;;;;;;;46.93;32.13;;;;;;;12.22;100.00;98156.28;4979693;28;20226;-80
2023/10/19 07:34:38;;;;;;;39.50;33.20;;;;;;;12.18;100.00;98147.22;4994047;28;20561;-78
2023/10/19 07:37:03;;;;;;;58.70;30.47;;;;;;;12.11;100.00;98146.94;4994527;28;20183;-76
2023/10/19 07:39:29;;;;;;;36.50;29.20;;;;;;;12.11;100.00;98149.53;4994338;28;20191;-77
2023/10/19 07:41:56;;;;;;;48.97;30.63;;;;;;;12.25;100.00;98166.31;4998303;28;20218;-76
2023/10/19 07:44:22;;;;;;;37.63;29.10;;;;;;;12.32;100.00;98163.16;4988295;28;20187;-75
2023/10/19 07:46:47;;;;;;;43.27;31.77;;;;;;;12.51;100.00;98167.41;4993963;28;20172;-77
2023/10/19 07:49:14;;;;;;;43.40;32.43;;;;;;;12.52;100.00;98166.47;4992925;28;20211;-78
2023/10/19 07:51:47;;;;;;;71.80;35.30;;;;;;;12.51;100.00;98159.69;4980467;28;20610;-81
2023/10/19 07:54:13;;;;;;;54.87;36.47;;;;;;;12.58;100.00;98158.16;4997233;28;20261;-81
2023/10/19 07:56:39;;;;;;;60.43;35.83;;;;;;;12.66;100.00;98160.00;4993638;28;20651;-81
2023/10/19 07:59:04;;;;;;;68.60;34.80;;;;;;;12.63;100.00;98158.53;4994193;28;20314;-80
2023/10/19 08:01:30;;;;;;;43.17;33.23;;;;;;;12.58;100.00;98155.56;4986795;28;20227;-80
2023/10/19 08:03:55;;;;;;;66.67;32.47;;;;;;;12.68;100.00;98151.16;4991054;28;20171;-81
2023/10/19 08:06:20;;;;;;;63.47;32.30;;;;;;;12.72;100.00;98143.94;4985640;28;20183;-81
2023/10/19 08:08:47;;;;;;;75.03;32.07;;;;;;;12.64;100.00;98134.34;4995039;28;20307;-81
2023/10/19 08:11:12;;;;;;;45.00;30.43;;;;;;;12.77;100.00;98146.09;4993254;28;20693;-81
2023/10/19 08:13:39;;;;;;;36.00;30.57;;;;;;;12.75;100.00;98147.03;4991794;28;20188;-79
2023/10/19 08:16:07;;;;;;;41.67;30.40;;;;;;;12.98;100.00;98150.97;4992654;28;20171;-79
2023/10/19 08:18:35;;;;;;;35.53;28.83;;;;;;;13.07;100.00;98153.50;4993965;28;20194;-79
2023/10/19 08:21:00;;;;;;;35.87;27.03;;;;;;;12.99;100.00;98153.41;4990102;28;20317;-80
2023/10/19 08:23:27;;;;;;;34.83;26.67;;;;;;;12.99;100.00;98148.25;5000645;28;20263;-80
2023/10/19 08:25:52;;;;;;;29.83;26.60;;;;;;;13.10;100.00;98147.22;4993512;28;20187;-80
2023/10/19 08:28:18;;;;;;;32.73;29.00;;;;;;;13.23;100.00;98157.16;4992325;28;20242;-80
2023/10/19 08:30:56;;;;;;;28.87;25.83;;;;;;;13.39;100.00;98152.16;4989260;28;20234;-81
2023/10/19 08:33:22;;;;;;;43.90;26.27;;;;;;;13.18;100.00;98154.22;4992832;28;20533;-81
2023/10/19 08:35:47;;;;;;;26.43;23.63;;;;;;;13.14;100.00;98155.47;4993610;28;20202;-81
2023/10/19 08:38:12;;;;;;;27.73;24.87;;;;;;;13.33;100.00;98149.34;4994320;28;20270;-81
2023/10/19 08:40:38;;;;;;;32.53;24.50;;;;;;;13.37;100.00;98133.44;4982132;28;20233;-81
2023/10/19 08:43:04;;;;;;;28.23;25.13;;;;;;;13.55;100.00;98133.38;4989049;28;20175;-81
2023/10/19 08:45:31;;;;;;;27.53;23.80;;;;;;;13.72;100.00;98123.97;4993387;28;20206;-82
2023/10/19 08:48:00;;;;;;;27.17;23.93;;;;;;;13.84;100.00;98123.72;4993773;28;20187;-80
2023/10/19 08:50:28;;;;;;;31.20;24.10;;;;;;;13.69;100.00;98123.47;4985059;28;20249;-80
2023/10/19 08:52:55;;;;;;;39.23;25.13;;;;;;;13.20;100.00;98119.53;4992208;28;20229;-82
2023/10/19 08:55:21;;;;;;;26.97;24.03;;;;;;;13.34;100.00;98119.97;4989892;28;20184;-79
2023/10/19 08:57:49;;;;;;;31.93;24.93;;;;;;;13.48;100.00;98124.63;4992977;28;20210;-79
2023/10/19 09:00:18;;;;;;;26.80;24.03;;;;;;;13.74;100.00;98130.75;4984707;28;20183;-81
2023/10/19 09:02:45;;;;;;;28.73;24.37;;;;;;;13.91;100.00;98124.72;5001874;28;20281;-80
2023/10/19 09:05:19;;;;;;;33.07;25.13;;;;;;;13.92;100.00;98118.59;4992345;28;20183;-79
2023/10/19 09:07:56;;;;;;;37.93;25.20;;;;;;;13.60;100.00;98116.63;4988851;28;20182;-78
2023/10/19 09:10:27;;;;;;;27.30;23.17;;;;;;;13.80;100.00;98123.19;4984909;28;21193;-80
2023/10/19 09:13:01;;;;;;;40.20;24.97;;;;;;;13.61;100.00;98113.09;5005567;28;20187;-80
2023/10/19 09:15:26;;;;;;;53.70;25.67;;;;;;;13.65;100.00;98114.41;4991457;28;20253;-80
2023/10/19 09:17:54;;;;;;;51.33;24.57;;;;;;;13.47;100.00;98106.69;4991118;28;20929;-80
2023/10/19 09:20:27;;;;;;;29.27;25.80;;;;;;;13.59;100.00;98118.41;4981354;28;20291;-80
2023/10/19 09:22:56;;;;;;;47.77;27.33;;;;;;;13.62;100.00;98117.28;4988967;28;20179;-80
2023/10/19 09:25:22;;;;;;;28.93;25.97;;;;;;;13.54;100.00;98111.13;4992890;28;20254;-80
2023/10/19 09:27:48;;;;;;;30.50;23.77;;;;;;;13.48;100.00;98097.97;4993124;28;20230;-80
2023/10/19 09:30:18;;;;;;;32.70;24.97;;;;;;;13.52;100.00;98087.22;4984004;28;20214;-78
2023/10/19 09:32:46;;;;;;;27.40;24.43;;;;;;;13.57;100.00;98079.00;4987766;28;20551;-76
2023/10/19 09:35:15;;;;;;;31.33;26.63;;;;;;;13.24;100.00;98082.13;4992433;28;20209;-74
2023/10/19 09:37:42;;;;;;;28.87;24.97;;;;;;;13.52;100.00;98073.47;4990932;28;20190;-75
2023/10/19 09:40:12;;;;;;;33.60;26.77;;;;;;;13.78;100.00;98078.63;4983502;28;20704;-78
2023/10/19 09:42:46;;;;;;;27.73;24.30;;;;;;;14.09;100.00;98080.72;4992964;28;20172;-77
2023/10/19 09:45:12;;;;;;;25.77;23.17;;;;;;;14.35;100.00;98079.81;4990821;28;20184;-78
2023/10/19 09:47:41;;;;;;;20.47;18.23;;;;;;;14.04;100.00;98070.00;4987228;28;20182;-75
2023/10/19 09:50:07;;;;;;;21.10;18.90;;;;;;;14.29;100.00;98078.69;4981629;28;20207;-76
2023/10/19 09:52:33;;;;;;;20.90;18.83;;;;;;;14.53;100.00;98075.31;4981647;28;20198;-75
2023/10/19 09:55:08;;;;;;;21.93;19.67;;;;;;;14.58;100.00;98072.25;4990926;28;20194;-75
2023/10/19 09:57:44;;;;;;;22.80;18.53;;;;;;;14.58;100.00;98079.22;4990895;28;20190;-76
2023/10/19 10:00:13;;;;;;;21.00;19.00;;;;;;;14.68;100.00;98080.72;4980581;28;20178;-74
2023/10/19 10:02:46;;;;;;;20.60;18.50;;;;;;;14.82;100.00;98073.28;4975727;28;20277;-73
2023/10/19 10:05:42;;;;;;;21.37;18.87;;;;;;;15.00;100.00;98086.91;4990982;28;20199;-73
2023/10/19 10:08:16;;;;;;;20.57;18.57;;;;;;;14.99;100.00;98084.47;4990599;28;20175;-73
2023/10/19 10:10:42;;;;;;;21.37;19.33;;;;;;;15.08;100.00;98086.09;4980138;28;20602;-73
2023/10/19 10:13:32;;;;;;;22.20;20.00;;;;;;;14.71;100.00;98092.56;5001772;28;20183;-73
2023/10/19 10:16:00;;;;;;;22.27;19.77;;;;;;;14.95;100.00;98090.97;4990576;28;20183;-76
2023/10/19 10:18:27;;;;;;;20.83;18.77;;;;;;;15.05;100.00;98078.66;4995154;28;20190;-76
2023/10/19 10:21:13;;;;;;;18.87;17.13;;;;;;;15.25;100.00;98088.69;4988013;28;20226;-79
2023/10/19 10:23:47;;;;;;;18.97;17.07;;;;;;;15.39;100.00;98090.59;4990655;28;20194;-79
2023/10/19 10:26:14;;;;;;;18.07;16.37;;;;;;;15.39;100.00;98085.41;4987217;28;20253;-79
2023/10/19 10:28:41;;;;;;;17.80;15.93;;;;;;;15.58;100.00;98078.25;4994183;28;20190;-73
2023/10/19 10:31:08;;;;;;;16.13;14.53;;;;;;;15.87;100.00;98076.94;4979799;28;20644;-77
2023/10/19 10:33:40;;;;;;;16.10;14.60;;;;;;;16.08;100.00;98081.56;4977655;28;20191;-77
2023/10/19 10:36:07;;;;;;;17.27;15.60;;;;;;;16.25;100.00;98072.72;4996411;28;20648;-76
2023/10/19 10:38:35;;;;;;;17.77;16.27;;;;;;;16.02;100.00;98064.88;4994697;28;20647;-79
2023/10/19 10:41:01;;;;;;;18.97;17.07;;;;;;;16.19;100.00;98067.41;4988943;28;20799;-75
2023/10/19 10:43:27;;;;;;;19.43;17.40;;;;;;;16.28;100.00;98066.38;5003202;28;20509;-78
2023/10/19 10:46:02;;;;;;;21.10;18.87;;;;;;;16.35;100.00;98058.72;4994298;28;20198;-77
2023/10/19 10:48:27;;;;;;;19.70;17.63;;;;;;;16.48;100.00;98058.97;4990062;28;20179;-79
2023/10/19 10:50:53;;;;;;;19.77;17.73;;;;;;;16.65;100.00;98057.06;4992458;28;20583;-79
2023/10/19 10:53:19;;;;;;;20.20;18.33;;;;;;;16.22;100.00;98052.28;4993984;28;20184;-79
2023/10/19 10:55:44;;;;;;;19.43;17.43;;;;;;;16.25;100.00;98056.34;4995695;28;20209;-79
2023/10/19 10:58:18;;;;;;;19.30;17.30;;;;;;;16.53;100.00;98050.66;4995423;28;20202;-77
2023/10/19 11:00:46;;;;;;;20.33;18.37;;;;;;;16.69;100.00;98053.13;4987441;28;20223;-76
2023/10/19 11:03:13;;;;;;;20.03;17.93;;;;;;;16.82;100.00;98049.16;5004652;28;20223;-78
2023/10/19 11:05:39;;;;;;;24.07;21.47;;;;;;;16.46;100.00;98058.34;4994468;28;20610;-77
2023/10/19 11:08:14;;;;;;;24.57;21.67;;;;;;;16.28;100.00;98053.41;4993888;28;20274;-76
2023/10/19 11:10:45;;;;;;;26.07;23.37;;;;;;;16.16;100.00;98042.59;4989727;28;20627;-76
2023/10/19 11:13:12;;;;;;;26.40;22.70;;;;;;;16.26;100.00;98048.41;5004522;28;20215;-75
2023/10/19 11:15:38;;;;;;;23.83;21.30;;;;;;;16.16;100.00;98040.00;4994122;28;20190;-76
2023/10/19 11:18:10;;;;;;;23.17;20.80;;;;;;;16.02;100.00;98041.53;4993940;28;20191;-75
2023/10/19 11:20:35;;;;;;;22.33;20.13;;;;;;;16.21;100.00;98034.31;4989265;28;20666;-75
2023/10/19 11:23:01;;;;;;;22.93;20.37;;;;;;;16.14;100.00;98045.38;5005359;28;20180;-73
2023/10/19 11:25:28;;;;;;;21.57;19.40;;;;;;;16.30;100.00;98034.09;4993695;28;20175;-73